createdAt,value
2017-07-10T00:00:11.502Z,81.80
2017-07-10T00:02:39.837Z,81.20
2017-07-10T00:05:08.144Z,81.50
2017-07-10T00:07:37.214Z,81.90
2017-07-10T00:10:05.603Z,81.90
2017-07-10T00:12:33.908Z,82.30
2017-07-10T00:15:02.191Z,82.50
2017-07-10T00:17:30.583Z,82.30
2017-07-10T00:19:58.868Z,81.90
2017-07-10T00:22:27.143Z,83.00
2017-07-10T00:24:55.462Z,83.30
2017-07-10T00:27:23.738Z,83.10
2017-07-10T00:29:52.022Z,82.90
2017-07-10T00:32:20.342Z,82.50
2017-07-10T00:34:49.410Z,82.60
2017-07-10T00:37:17.706Z,82.60
2017-07-10T00:39:46.028Z,83.10
2017-07-10T00:42:15.111Z,83.80
2017-07-10T00:44:43.427Z,83.70
2017-07-10T00:47:12.615Z,83.20
2017-07-10T00:49:40.927Z,83.10
2017-07-10T00:52:10.110Z,84.40
2017-07-10T00:54:38.401Z,84.40
2017-07-10T00:57:06.800Z,83.70
2017-07-10T00:59:35.107Z,83.40
2017-07-10T01:02:04.189Z,83.90
2017-07-10T01:04:32.485Z,83.90
2017-07-10T01:07:00.778Z,83.60
2017-07-10T01:09:29.059Z,83.40
2017-07-10T01:11:57.451Z,81.60
2017-07-10T01:14:27.227Z,82.20
2017-07-10T01:16:55.567Z,82.20
2017-07-10T01:19:23.834Z,82.50
2017-07-10T01:21:52.239Z,82.20
2017-07-10T01:24:20.551Z,82.50
2017-07-10T01:26:49.628Z,83.00
2017-07-10T01:29:17.898Z,83.00
2017-07-10T01:31:46.308Z,81.80
2017-07-10T01:34:14.586Z,81.80
2017-07-10T01:36:42.891Z,81.60
2017-07-10T01:39:11.219Z,81.60
2017-07-10T01:41:40.254Z,81.80
2017-07-10T01:44:08.531Z,81.80
2017-07-10T01:46:36.852Z,81.60
2017-07-10T01:49:05.161Z,81.70
2017-07-10T01:51:33.544Z,81.20
2017-07-10T01:54:01.851Z,80.90
2017-07-10T01:56:30.173Z,80.90
2017-07-10T01:58:58.483Z,80.90
2017-07-10T02:01:26.767Z,80.40
2017-07-10T02:03:55.074Z,80.70
2017-07-10T02:06:23.392Z,80.60
2017-07-10T02:08:51.827Z,81.00
2017-07-10T02:11:20.098Z,80.90
2017-07-10T02:13:49.157Z,80.90
2017-07-10T02:16:17.454Z,80.90
2017-07-10T02:18:45.757Z,81.30
2017-07-10T02:21:14.036Z,80.90
2017-07-10T02:23:42.342Z,81.10
2017-07-10T02:26:10.727Z,81.30
2017-07-10T02:28:39.211Z,81.10
2017-07-10T02:31:07.486Z,81.50
2017-07-10T02:33:35.787Z,81.10
2017-07-10T02:36:04.091Z,81.10
2017-07-10T02:38:32.395Z,80.60
2017-07-10T02:41:01.433Z,81.10
2017-07-10T02:43:29.706Z,81.20
2017-07-10T02:45:58.018Z,81.90
2017-07-10T02:48:26.314Z,81.20
2017-07-10T02:50:54.586Z,81.40
2017-07-10T02:53:22.932Z,82.10
2017-07-10T02:55:51.261Z,81.50
2017-07-10T02:58:19.604Z,81.70
2017-07-10T03:00:47.892Z,81.70
2017-07-10T03:03:16.275Z,81.40
2017-07-10T03:05:44.550Z,81.50
2017-07-10T03:08:13.660Z,81.90
2017-07-10T03:10:42.062Z,81.80
2017-07-10T03:13:10.369Z,82.00
2017-07-10T03:15:38.666Z,82.40
2017-07-10T03:18:07.751Z,83.40
2017-07-10T03:20:36.153Z,83.40
2017-07-10T03:23:04.541Z,83.30
2017-07-10T03:25:32.860Z,83.70
2017-07-10T03:28:01.926Z,83.30
2017-07-10T03:30:30.237Z,83.30
2017-07-10T03:32:58.563Z,83.40
2017-07-10T03:35:26.911Z,83.40
2017-07-10T03:37:55.303Z,82.80
2017-07-10T03:40:23.687Z,82.80
2017-07-10T03:42:51.975Z,83.00
2017-07-10T03:45:20.370Z,83.00
2017-07-10T03:47:48.684Z,83.10
2017-07-10T03:50:17.005Z,82.80
2017-07-10T03:52:46.169Z,83.00
2017-07-10T03:55:14.471Z,83.00
2017-07-10T03:57:42.785Z,82.70
2017-07-10T04:00:11.837Z,82.00
2017-07-10T04:02:40.147Z,82.00
2017-07-10T04:05:08.432Z,81.30
2017-07-10T04:07:36.832Z,81.00
2017-07-10T04:10:05.233Z,81.00
2017-07-10T04:12:33.498Z,81.00
2017-07-10T04:15:01.839Z,80.40
2017-07-10T04:17:30.921Z,79.90
2017-07-10T04:19:59.308Z,79.90
2017-07-10T04:22:27.601Z,79.90
2017-07-10T04:24:55.906Z,79.80
2017-07-10T04:27:24.998Z,80.10
2017-07-10T04:29:53.267Z,80.10
2017-07-10T04:32:21.637Z,80.30
2017-07-10T04:34:49.963Z,80.80
2017-07-10T04:37:18.244Z,81.00
2017-07-10T04:39:46.644Z,80.30
2017-07-10T04:42:14.927Z,80.00
2017-07-10T04:44:43.323Z,79.30
2017-07-10T04:47:11.599Z,79.70
2017-07-10T04:49:39.907Z,78.70
2017-07-10T04:52:08.209Z,80.00
2017-07-10T04:54:37.308Z,79.50
2017-07-10T04:57:06.398Z,79.50
2017-07-10T04:59:34.682Z,79.60
2017-07-10T05:02:02.989Z,78.60
2017-07-10T05:04:31.372Z,78.10
2017-07-10T05:06:59.768Z,79.30
2017-07-10T05:09:28.171Z,77.30
2017-07-10T05:11:56.448Z,76.50
2017-07-10T05:14:26.066Z,75.90
2017-07-10T05:16:54.343Z,76.20
2017-07-10T05:19:22.665Z,75.10
2017-07-10T05:21:51.716Z,75.00
2017-07-10T05:24:19.988Z,75.00
2017-07-10T05:26:48.328Z,74.40
2017-07-10T05:29:16.598Z,74.40
2017-07-10T05:31:44.919Z,75.00
2017-07-10T05:34:13.204Z,73.60
2017-07-10T05:36:41.474Z,72.90
2017-07-10T05:39:09.779Z,73.20
2017-07-10T05:41:38.168Z,73.80
2017-07-10T05:44:06.552Z,73.10
2017-07-10T05:46:34.838Z,73.90
2017-07-10T05:49:03.230Z,73.90
2017-07-10T05:51:31.626Z,73.90
2017-07-10T05:53:59.910Z,72.20
2017-07-10T05:56:29.384Z,72.50
2017-07-10T05:58:57.722Z,74.60
2017-07-10T06:01:26.027Z,73.00
2017-07-10T06:03:55.127Z,72.40
2017-07-10T06:06:23.549Z,72.30
2017-07-10T06:08:51.876Z,71.30
2017-07-10T06:11:20.186Z,72.10
2017-07-10T06:13:48.490Z,71.80
2017-07-10T06:16:17.112Z,71.80
2017-07-10T06:18:45.450Z,71.50
2017-07-10T06:21:13.774Z,70.90
2017-07-10T06:23:42.051Z,71.50
2017-07-10T06:26:10.354Z,70.80
2017-07-10T06:28:39.399Z,70.40
2017-07-10T06:31:07.712Z,70.10
2017-07-10T06:33:36.022Z,71.60
2017-07-10T06:36:04.407Z,72.70
2017-07-10T06:38:32.677Z,71.00
2017-07-10T06:41:01.096Z,71.00
2017-07-10T06:43:29.416Z,69.70
2017-07-10T06:45:58.491Z,69.90
2017-07-10T06:48:26.803Z,69.80
2017-07-10T06:50:55.163Z,69.50
2017-07-10T06:53:23.564Z,69.40
2017-07-10T06:55:52.634Z,68.70
2017-07-10T06:58:20.978Z,68.70
2017-07-10T07:00:49.268Z,68.10
2017-07-10T07:03:23.481Z,67.70
2017-07-10T07:05:51.819Z,68.10
2017-07-10T07:08:20.911Z,67.70
2017-07-10T07:10:50.232Z,67.20
2017-07-10T07:13:18.586Z,67.20
2017-07-10T07:15:47.650Z,66.30
2017-07-10T07:18:15.980Z,66.30
2017-07-10T07:20:44.280Z,67.30
2017-07-10T07:23:12.599Z,66.80
2017-07-10T07:25:40.901Z,66.10
2017-07-10T07:28:10.002Z,65.00
2017-07-10T07:30:38.296Z,64.90
2017-07-10T07:33:06.633Z,64.90
2017-07-10T07:35:51.893Z,65.40
2017-07-10T07:38:20.219Z,65.40
2017-07-10T07:40:48.521Z,66.00
2017-07-10T07:43:16.871Z,65.40
2017-07-10T07:45:45.180Z,65.50
2017-07-10T07:48:13.494Z,66.60
2017-07-10T07:50:42.601Z,65.50
2017-07-10T07:53:11.698Z,65.90
2017-07-10T07:55:41.137Z,65.20
2017-07-10T07:58:09.482Z,65.20
2017-07-10T08:00:37.815Z,66.50
2017-07-10T08:03:06.169Z,66.30
2017-07-10T08:05:34.501Z,66.90
2017-07-10T08:08:02.840Z,65.70
2017-07-10T08:10:31.160Z,67.40
2017-07-10T08:13:09.157Z,68.50
2017-07-10T08:15:37.482Z,68.30
2017-07-10T08:18:05.830Z,68.40
2017-07-10T08:20:34.938Z,67.10
2017-07-10T08:23:03.239Z,66.90
2017-07-10T08:25:31.584Z,66.90
2017-07-10T08:28:00.667Z,67.70
2017-07-10T08:30:29.782Z,68.30
2017-07-10T08:32:58.084Z,68.30
2017-07-10T08:35:26.429Z,67.20
2017-07-10T08:37:54.726Z,68.40
2017-07-10T08:40:23.073Z,68.00
2017-07-10T08:42:52.181Z,71.50
2017-07-10T08:45:21.245Z,70.40
2017-07-10T08:47:49.573Z,70.30
2017-07-10T08:50:17.873Z,70.00
2017-07-10T08:52:46.207Z,71.70
2017-07-10T08:55:15.286Z,73.30
2017-07-10T08:57:43.618Z,73.30
2017-07-10T09:00:11.921Z,73.60
2017-07-10T09:02:40.249Z,76.70
2017-07-10T09:05:08.573Z,79.40
2017-07-10T09:07:36.880Z,81.00
2017-07-10T09:10:06.006Z,86.70
2017-07-10T09:12:34.332Z,86.70
2017-07-10T09:15:02.631Z,87.40
2017-07-10T09:17:31.742Z,90.20
2017-07-10T09:20:01.400Z,90.10
2017-07-10T09:22:30.379Z,90.50
2017-07-10T09:25:00.068Z,92.60
2017-07-10T09:27:28.406Z,92.50
2017-07-10T09:29:56.754Z,92.50
2017-07-10T09:32:25.048Z,92.80
2017-07-10T09:34:53.406Z,93.20
2017-07-10T09:37:21.721Z,93.30
2017-07-10T09:39:50.809Z,93.90
2017-07-10T09:42:19.157Z,93.90
2017-07-10T09:44:47.521Z,93.50
2017-07-10T09:47:15.845Z,92.80
2017-07-10T09:49:44.158Z,93.00
2017-07-10T09:52:12.487Z,93.40
2017-07-10T09:54:40.830Z,93.80
2017-07-10T09:57:09.171Z,93.50
2017-07-10T09:59:38.242Z,93.70
2017-07-10T10:02:06.584Z,93.70
2017-07-10T10:04:34.900Z,93.70
2017-07-10T10:07:03.418Z,94.50
2017-07-10T10:09:31.748Z,94.30
2017-07-10T10:12:00.051Z,94.30
2017-07-10T10:14:29.185Z,94.20
2017-07-10T10:16:57.485Z,94.20
2017-07-10T10:19:25.846Z,94.30
2017-07-10T10:21:54.383Z,94.60
2017-07-10T10:24:23.500Z,94.50
2017-07-10T10:26:51.836Z,94.40
2017-07-10T10:29:20.157Z,94.60
2017-07-10T10:31:48.497Z,94.70
2017-07-10T10:34:16.846Z,94.50
2017-07-10T10:36:45.171Z,94.30
2017-07-10T10:39:14.384Z,94.50
2017-07-10T10:41:42.701Z,94.10
2017-07-10T10:44:11.014Z,94.50
2017-07-10T10:46:39.363Z,94.50
2017-07-10T10:49:07.671Z,94.50
2017-07-10T10:51:36.803Z,95.30
2017-07-10T10:54:05.109Z,94.90
2017-07-10T10:56:33.470Z,94.90
2017-07-10T10:59:01.775Z,94.90
2017-07-10T11:01:30.142Z,94.90
2017-07-10T11:04:12.163Z,95.00
2017-07-10T11:06:40.506Z,95.00
2017-07-10T11:09:08.822Z,95.20
2017-07-10T11:11:37.174Z,95.30
2017-07-10T11:14:05.477Z,95.40
2017-07-10T11:16:34.395Z,94.90
2017-07-10T11:19:05.037Z,95.70
2017-07-10T11:24:36.466Z,94.20
2017-07-10T11:27:04.778Z,95.70
2017-07-10T11:29:33.863Z,93.20
2017-07-10T11:32:07.955Z,92.30
2017-07-10T11:34:39.234Z,92.50
2017-07-10T11:37:08.905Z,91.90
2017-07-10T11:39:37.234Z,91.90
2017-07-10T11:42:05.586Z,92.30
2017-07-10T11:44:34.044Z,91.90
2017-07-10T11:47:02.351Z,91.80
2017-07-10T11:49:31.441Z,90.90
2017-07-10T11:51:59.790Z,90.70
2017-07-10T11:54:30.111Z,91.70
2017-07-10T11:56:58.462Z,91.90
2017-07-10T11:59:26.797Z,91.40
2017-07-10T12:01:55.252Z,90.70
2017-07-10T12:04:23.569Z,91.20
2017-07-10T12:06:52.660Z,91.90
2017-07-10T12:09:21.048Z,92.10
2017-07-10T12:11:49.389Z,91.80
2017-07-10T12:14:17.711Z,92.10
2017-07-10T12:16:46.079Z,92.00
2017-07-10T12:19:14.436Z,92.40
2017-07-10T12:21:42.754Z,92.50
2017-07-10T12:24:11.105Z,92.60
2017-07-10T12:26:39.416Z,92.90
2017-07-10T12:29:11.844Z,92.80
2017-07-10T12:31:40.162Z,92.90
2017-07-10T12:34:08.459Z,93.00
2017-07-10T12:36:36.824Z,93.40
2017-07-10T12:39:05.147Z,91.90
2017-07-10T12:41:33.454Z,92.20
2017-07-10T12:44:01.810Z,92.00
2017-07-10T12:46:30.121Z,92.10
2017-07-10T12:48:58.462Z,91.80
2017-07-10T12:51:32.984Z,92.00
2017-07-10T12:54:01.312Z,92.00
2017-07-10T12:56:29.626Z,91.50
2017-07-10T12:58:57.980Z,91.50
2017-07-10T13:01:26.388Z,91.30
2017-07-10T13:03:55.533Z,91.10
2017-07-10T13:06:24.653Z,90.90
2017-07-10T13:08:53.020Z,90.90
2017-07-10T13:11:21.348Z,91.50
2017-07-10T13:13:49.662Z,91.80
2017-07-10T13:16:19.491Z,91.40
2017-07-10T13:18:48.852Z,91.60
2017-07-10T13:21:17.256Z,91.60
2017-07-10T13:23:46.353Z,90.30
2017-07-10T13:26:15.476Z,90.90
2017-07-10T13:28:47.845Z,90.90
2017-07-10T13:31:16.391Z,91.10
2017-07-10T13:34:04.721Z,90.00
2017-07-10T13:36:33.067Z,89.90
2017-07-10T13:39:01.375Z,90.20
2017-07-10T13:41:29.712Z,89.20
2017-07-10T13:43:58.035Z,88.40
2017-07-10T13:46:26.386Z,86.60
2017-07-10T13:48:54.729Z,87.70
2017-07-10T13:51:23.037Z,88.00
2017-07-10T13:53:51.403Z,87.80
2017-07-10T13:56:19.744Z,88.60
2017-07-10T13:58:48.821Z,89.60
2017-07-10T14:01:17.153Z,89.10
2017-07-10T14:03:45.474Z,88.10
2017-07-10T14:06:13.815Z,90.00
2017-07-10T14:08:42.125Z,89.10
2017-07-10T14:11:10.485Z,90.30
2017-07-10T14:13:38.830Z,90.50
2017-07-10T14:16:07.140Z,90.70
2017-07-10T14:18:35.512Z,91.00
2017-07-10T14:21:03.855Z,91.40
2017-07-10T14:23:32.187Z,91.20
2017-07-10T14:26:00.549Z,91.00
2017-07-10T14:28:28.905Z,91.50
2017-07-10T14:30:57.256Z,91.40
2017-07-10T14:33:25.601Z,91.30
2017-07-10T14:35:54.919Z,91.30
2017-07-10T14:38:25.197Z,91.30
2017-07-10T14:40:53.559Z,90.30
2017-07-10T14:43:21.889Z,91.40
2017-07-10T14:45:50.244Z,89.50
2017-07-10T14:48:18.605Z,90.60
2017-07-10T14:50:46.930Z,90.70
2017-07-10T14:53:15.255Z,90.20
2017-07-10T14:55:43.600Z,90.00
2017-07-10T14:58:11.927Z,88.90
2017-07-10T15:00:40.263Z,89.60
2017-07-10T15:03:09.357Z,88.20
2017-07-10T15:05:38.463Z,89.40
2017-07-10T15:08:07.556Z,86.20
2017-07-10T15:10:35.928Z,86.20
2017-07-10T15:13:05.047Z,86.60
2017-07-10T15:15:33.411Z,86.60
2017-07-10T15:18:02.508Z,79.80
2017-07-10T15:20:31.592Z,79.90
2017-07-10T15:23:00.732Z,78.20
2017-07-10T15:25:29.063Z,77.50
2017-07-10T15:27:57.428Z,77.80
2017-07-10T15:30:25.764Z,76.90
2017-07-10T15:32:54.098Z,74.50
2017-07-10T15:35:23.231Z,72.30
2017-07-10T15:37:51.553Z,72.10
2017-07-10T15:40:19.921Z,73.20
2017-07-10T15:42:48.284Z,74.70
2017-07-10T15:57:24.591Z,70.90
2017-07-10T15:59:53.681Z,72.60
2017-07-10T16:02:22.003Z,72.60
2017-07-10T16:04:50.348Z,74.40
2017-07-10T16:07:18.687Z,76.60
2017-07-10T16:09:47.083Z,78.30
2017-07-10T16:12:15.450Z,79.10
2017-07-10T16:14:43.776Z,79.70
2017-07-10T16:17:12.125Z,83.00
2017-07-10T16:19:47.644Z,87.60
2017-07-10T16:22:17.047Z,87.50
2017-07-10T16:24:45.369Z,87.70
2017-07-10T16:27:13.733Z,87.90
2017-07-10T16:29:42.070Z,87.20
2017-07-10T16:32:10.426Z,85.60
2017-07-10T16:34:38.743Z,85.90
2017-07-10T16:37:10.094Z,84.90
2017-07-10T16:39:38.425Z,84.70
2017-07-10T16:42:07.683Z,84.90
2017-07-10T16:44:37.501Z,85.70
2017-07-10T16:47:05.841Z,85.60
2017-07-10T16:49:34.240Z,86.90
2017-07-10T16:52:02.558Z,86.90
2017-07-10T16:54:30.893Z,86.30
2017-07-10T16:57:11.947Z,86.80
2017-07-10T16:59:40.327Z,87.00
2017-07-10T17:02:08.682Z,87.10
2017-07-10T17:04:36.996Z,87.80
2017-07-10T17:07:05.350Z,89.00
2017-07-10T17:09:33.678Z,89.60
2017-07-10T17:12:02.784Z,91.10
2017-07-10T17:14:31.901Z,91.30
2017-07-10T17:17:02.169Z,91.30
2017-07-10T17:19:30.536Z,91.30
2017-07-10T17:21:58.863Z,91.20
2017-07-10T17:24:27.974Z,91.20
2017-07-10T17:26:56.284Z,91.20
2017-07-10T17:29:24.638Z,91.40
2017-07-10T17:31:56.780Z,90.50
2017-07-10T17:34:25.843Z,89.40
2017-07-10T17:37:09.012Z,88.90
2017-07-10T17:39:38.081Z,88.80
2017-07-10T17:42:06.433Z,88.70
2017-07-10T17:47:42.095Z,89.70
2017-07-10T17:50:10.451Z,89.40
2017-07-10T17:52:38.818Z,88.90
2017-07-10T17:55:07.165Z,86.30
2017-07-10T17:57:35.492Z,86.80
2017-07-10T18:00:03.844Z,86.70
2017-07-10T18:02:32.919Z,87.60
2017-07-10T18:05:01.268Z,87.50
2017-07-10T18:07:29.627Z,88.00
2017-07-10T18:10:01.075Z,87.70
2017-07-10T18:12:29.735Z,86.70
2017-07-10T18:14:58.137Z,86.50
2017-07-10T18:20:19.834Z,87.70
2017-07-10T18:22:48.168Z,87.40
2017-07-10T18:25:16.489Z,89.00
2017-07-10T18:27:44.851Z,88.60
2017-07-10T18:30:13.144Z,88.90
2017-07-10T18:32:41.484Z,88.70
2017-07-10T18:35:09.896Z,89.90
2017-07-10T18:37:38.341Z,90.10
2017-07-10T18:46:11.017Z,90.50
2017-07-10T18:48:40.136Z,91.50
2017-07-10T18:51:08.447Z,91.50
2017-07-10T18:53:36.914Z,91.50
2017-07-10T18:59:03.954Z,92.30
2017-07-10T19:01:32.296Z,92.30
2017-07-10T19:04:00.610Z,92.50
2017-07-10T19:06:38.791Z,92.60
2017-07-10T19:09:07.150Z,92.90
2017-07-10T19:11:35.516Z,92.80
2017-07-10T19:14:04.658Z,92.90
2017-07-10T19:16:33.125Z,93.20
2017-07-10T19:19:02.757Z,93.20
2017-07-10T19:21:31.099Z,93.30
2017-07-10T19:23:59.435Z,92.80
2017-07-10T19:26:27.920Z,93.60
2017-07-10T19:28:56.242Z,93.90
2017-07-10T19:31:25.672Z,94.10
2017-07-10T19:33:54.034Z,94.20
2017-07-10T19:36:22.950Z,94.30
2017-07-10T19:38:52.150Z,94.30
2017-07-10T19:41:22.401Z,94.30
2017-07-10T19:43:50.741Z,94.30
2017-07-10T19:46:20.167Z,93.80
2017-07-10T19:48:48.479Z,93.80
2017-07-10T19:51:16.867Z,94.10
2017-07-10T19:53:48.217Z,94.10
2017-07-10T19:56:16.582Z,94.10
2017-07-10T19:58:44.905Z,94.00
2017-07-10T20:01:13.985Z,94.20
2017-07-10T20:03:42.381Z,94.20
2017-07-10T20:06:10.688Z,94.30
2017-07-10T20:08:39.022Z,94.30
2017-07-10T20:11:07.360Z,94.40
2017-07-10T20:13:35.722Z,93.90
2017-07-10T20:16:04.377Z,94.00
2017-07-10T20:18:33.530Z,94.20
2017-07-10T20:21:02.168Z,94.10
2017-07-10T20:23:30.532Z,94.10
2017-07-10T20:25:58.938Z,94.10
2017-07-10T20:28:33.963Z,94.30
2017-07-10T20:31:03.095Z,94.30
2017-07-10T20:33:31.440Z,94.20
2017-07-10T20:36:09.292Z,94.10
2017-07-10T20:38:37.604Z,94.00
2017-07-10T20:41:06.708Z,93.90
2017-07-10T20:43:35.049Z,93.60
2017-07-10T20:46:03.383Z,93.60
2017-07-10T20:48:32.052Z,94.10
2017-07-10T20:51:00.365Z,94.00
2017-07-10T20:53:28.674Z,94.00
2017-07-10T20:55:57.023Z,94.10
2017-07-10T20:58:25.363Z,94.10
2017-07-10T21:00:54.479Z,94.40
2017-07-10T21:03:22.799Z,94.10
2017-07-10T21:05:51.237Z,94.10
2017-07-10T21:08:19.552Z,93.90
2017-07-10T21:13:45.263Z,94.40
2017-07-10T21:16:13.568Z,94.50
2017-07-10T21:18:41.893Z,94.20
2017-07-10T21:21:11.105Z,94.20
2017-07-10T21:23:40.416Z,94.00
2017-07-10T21:26:08.729Z,94.00
2017-07-10T21:28:37.071Z,93.80
2017-07-10T21:31:05.406Z,93.80
2017-07-10T21:33:33.732Z,93.90
2017-07-10T21:36:02.094Z,94.10
2017-07-10T21:38:31.168Z,93.90
2017-07-10T21:40:59.553Z,93.90
2017-07-10T21:43:28.648Z,93.60
2017-07-10T21:45:57.724Z,93.40
2017-07-10T21:48:28.049Z,93.40
2017-07-10T21:50:56.353Z,93.60
2017-07-10T21:53:25.477Z,93.60
2017-07-10T21:55:53.786Z,93.60
2017-07-10T21:58:22.122Z,93.80
2017-07-10T22:00:50.498Z,93.70
2017-07-10T22:03:18.815Z,93.70
2017-07-10T22:05:47.161Z,93.40
2017-07-10T22:08:15.501Z,93.40
2017-07-10T22:10:43.805Z,93.70
2017-07-10T22:13:12.150Z,94.00
2017-07-10T22:15:40.469Z,94.10
2017-07-10T22:18:08.818Z,94.40
2017-07-10T22:20:37.157Z,94.30
2017-07-10T22:23:05.492Z,94.30
2017-07-10T22:25:33.844Z,94.40
2017-07-10T22:28:02.185Z,94.40
2017-07-10T22:30:30.526Z,94.40
2017-07-10T22:32:58.874Z,94.40
2017-07-10T22:35:27.214Z,94.80
2017-07-10T22:37:55.525Z,95.30
2017-07-10T22:40:28.908Z,95.40
2017-07-10T22:42:57.222Z,95.40
2017-07-10T22:45:25.564Z,95.50
2017-07-10T22:47:53.886Z,95.50
2017-07-10T22:50:23.006Z,95.70
2017-07-10T22:52:51.376Z,95.70
2017-07-10T22:55:19.710Z,95.80
2017-07-10T22:57:48.058Z,95.90
2017-07-10T23:00:16.402Z,95.80
2017-07-10T23:02:44.708Z,95.90
2017-07-10T23:05:13.062Z,95.90
2017-07-10T23:07:41.370Z,96.10
2017-07-10T23:10:09.711Z,95.60
2017-07-10T23:12:38.029Z,95.30
2017-07-10T23:15:06.372Z,95.20
2017-07-10T23:17:34.717Z,94.90
2017-07-10T23:20:03.175Z,95.00
2017-07-10T23:22:32.404Z,95.40
2017-07-10T23:25:00.712Z,95.10
2017-07-10T23:27:29.043Z,95.20
2017-07-10T23:29:57.356Z,94.90
2017-07-10T23:32:25.706Z,94.80
2017-07-10T23:34:54.060Z,94.50
2017-07-10T23:37:22.373Z,94.20
2017-07-10T23:39:50.689Z,93.90
2017-07-10T23:42:19.028Z,93.70
2017-07-10T23:44:48.135Z,93.40
2017-07-10T23:47:17.221Z,93.80
2017-07-10T23:49:46.319Z,93.50
2017-07-10T23:52:15.406Z,93.00
2017-07-10T23:54:44.512Z,92.30
2017-07-10T23:57:13.601Z,92.70
2017-07-10T23:59:42.723Z,93.00
